Time;durP1;ratioP1;P1;durP2;ratioP2;P2;SDS_P1;SDS_P2;PMS_P1;PMS_P2;Temp;Humidity;BMP_temperature;BMP_pressure;BME280_temperature;BME280_humidity;BME280_pressure;Samples;Min_cycle;Max_cycle;Signal;HPM_P1;HPM_P2
2023/01/28 00:01:43;;;;;;;7.70;4.05;;;;;;;3.70;100.00;99342.19;5070548;28;20114;-32
2023/01/28 00:04:08;;;;;;;7.57;4.40;;;;;;;3.64;100.00;99345.59;5089187;28;20548;-29
2023/01/28 00:06:34;;;;;;;9.25;4.47;;;;;;;3.72;100.00;99344.63;5070810;28;20095;-32
2023/01/28 00:09:00;;;;;;;10.98;5.90;;;;;;;3.88;100.00;99351.44;5088904;28;20480;-29
2023/01/28 00:11:25;;;;;;;9.20;4.93;;;;;;;3.75;100.00;99321.31;5088644;28;20054;-29
2023/01/28 00:13:54;;;;;;;11.80;6.10;;;;;;;4.10;100.00;99358.25;5089254;28;20036;-28
2023/01/28 00:16:21;;;;;;;9.30;4.65;;;;;;;4.00;100.00;99358.63;5088815;28;20026;-31
2023/01/28 00:18:47;;;;;;;9.00;5.00;;;;;;;3.86;100.00;99309.41;5071250;28;20166;-27
2023/01/28 00:21:14;;;;;;;9.55;5.20;;;;;;;4.01;100.00;99354.97;5089445;28;20494;-27
2023/01/28 00:23:41;;;;;;;9.63;4.90;;;;;;;3.93;100.00;99355.13;5089320;28;20046;-31
2023/01/28 00:26:13;;;;;;;9.67;5.07;;;;;;;3.82;100.00;99339.81;5088735;28;20020;-28
2023/01/28 00:28:38;;;;;;;38.00;24.02;;;;;;;3.95;100.00;99353.09;5070857;28;20344;-30
2023/01/28 00:31:09;;;;;;;51.42;27.67;;;;;;;3.87;100.00;99339.25;5088895;28;20471;-28
2023/01/28 00:33:35;;;;;;;40.33;29.63;;;;;;;3.89;100.00;99338.06;5070668;28;20165;-28
2023/01/28 00:36:03;;;;;;;36.28;28.83;;;;;;;4.13;100.00;99365.00;5070612;28;20126;-27
2023/01/28 00:38:28;;;;;;;13.32;10.50;;;;;;;4.25;100.00;99366.09;5089118;28;20043;-29
2023/01/28 00:40:54;;;;;;;28.05;18.52;;;;;;;4.21;100.00;99367.47;5089421;28;20032;-27
2023/01/28 00:43:20;;;;;;;28.23;19.20;;;;;;;4.21;100.00;99370.13;5070905;28;20081;-28
2023/01/28 00:45:46;;;;;;;44.30;33.58;;;;;;;4.13;100.00;99354.44;5069929;28;20035;-31
2023/01/28 00:48:11;;;;;;;18.38;12.02;;;;;;;4.16;100.00;99369.88;5070401;28;20028;-30
2023/01/28 00:50:38;;;;;;;31.35;25.58;;;;;;;4.28;100.00;99381.50;5070308;28;20028;-30
2023/01/28 00:53:03;;;;;;;27.38;21.58;;;;;;;4.36;100.00;99380.56;5088422;28;20035;-32
2023/01/28 00:55:29;;;;;;;31.80;25.70;;;;;;;4.21;100.00;99357.72;5088277;28;20028;-29
2023/01/28 00:57:54;;;;;;;19.63;14.57;;;;;;;4.26;100.00;99378.25;5088511;28;20602;-29
2023/01/28 01:00:24;;;;;;;13.50;10.68;;;;;;;4.27;100.00;99386.97;5088131;28;20036;-30
2023/01/28 01:02:51;;;;;;;14.13;10.75;;;;;;;4.17;100.00;99382.88;5088537;28;20380;-30
2023/01/28 01:05:17;;;;;;;23.83;12.68;;;;;;;4.21;100.00;99394.69;5088230;28;20585;-29
2023/01/28 01:07:43;;;;;;;25.98;12.73;;;;;;;4.23;100.00;99389.22;5088366;28;20036;-29
2023/01/28 01:10:12;;;;;;;19.88;11.15;;;;;;;4.53;100.00;99395.03;5088305;28;20036;-29
2023/01/28 01:12:38;;;;;;;34.97;19.38;;;;;;;4.41;100.00;99394.81;5087950;28;20028;-28
2023/01/28 01:15:07;;;;;;;23.88;14.45;;;;;;;4.22;100.00;99379.66;5088524;28;20024;-28
2023/01/28 01:17:33;;;;;;;17.73;10.88;;;;;;;4.36;100.00;99396.38;5088307;28;20472;-30
2023/01/28 01:19:58;;;;;;;17.85;11.00;;;;;;;4.37;100.00;99377.72;5088697;28;20114;-28
2023/01/28 01:22:24;;;;;;;20.70;13.55;;;;;;;4.35;100.00;99395.56;5088655;28;20032;-28
2023/01/28 01:24:49;;;;;;;17.13;10.80;;;;;;;4.35;100.00;99385.03;5070461;28;20093;-33
2023/01/28 01:27:15;;;;;;;12.88;8.43;;;;;;;4.28;100.00;99400.00;5088139;28;20035;-28
2023/01/28 01:29:40;;;;;;;12.50;7.30;;;;;;;4.26;100.00;99390.66;5088655;28;20032;-30
2023/01/28 01:32:06;;;;;;;12.85;7.32;;;;;;;4.37;100.00;99398.84;5088656;28;20031;-27
2023/01/28 01:34:31;;;;;;;10.50;6.10;;;;;;;4.41;100.00;99399.25;5070289;28;20032;-31
2023/01/28 01:36:57;;;;;;;14.57;7.50;;;;;;;4.29;100.00;99395.53;5088695;28;20060;-28
2023/01/28 01:39:22;;;;;;;11.98;7.05;;;;;;;4.39;100.00;99394.19;5091198;28;20088;-29
2023/01/28 01:41:48;;;;;;;10.43;6.22;;;;;;;4.25;100.00;99405.69;5073930;28;20492;-28
2023/01/28 01:44:51;;;;;;;11.40;5.68;;;;;;;4.27;100.00;99408.94;5073970;28;20415;-27
2023/01/28 01:47:17;;;;;;;10.30;6.45;;;;;;;4.34;100.00;99411.59;5073373;28;20028;-28
2023/01/28 01:49:43;;;;;;;13.27;7.18;;;;;;;4.28;100.00;99394.72;5073582;28;20060;-29
2023/01/28 01:52:16;;;;;;;45.63;40.00;;;;;;;4.27;100.00;99411.56;5073089;28;20032;-31
2023/01/28 01:54:45;;;;;;;17.23;12.70;;;;;;;4.28;100.00;99410.56;5091642;28;20035;-29
2023/01/28 01:57:15;;;;;;;12.02;6.90;;;;;;;4.27;100.00;99408.09;5073156;28;20059;-29
2023/01/28 01:59:42;;;;;;;10.18;6.50;;;;;;;4.30;100.00;99405.88;5091298;28;20029;-29
2023/01/28 02:02:10;;;;;;;9.88;6.10;;;;;;;4.32;100.00;99419.72;5091587;28;20031;-31
2023/01/28 02:04:38;;;;;;;19.92;17.48;;;;;;;4.21;100.00;99420.25;5091951;28;20039;-28
2023/01/28 02:07:04;;;;;;;;;;;;;;;4.29;100.00;99414.84;5091846;28;20757;-30
2023/01/28 02:09:34;;;;;;;13.32;9.38;;;;;;;4.31;100.00;99420.75;5090991;28;20014;-29
2023/01/28 02:12:04;;;;;;;14.20;9.32;;;;;;;4.19;100.00;99423.09;5073238;28;20028;-28
2023/01/28 02:14:34;;;;;;;12.73;6.65;;;;;;;4.26;100.00;99411.75;5091090;28;20032;-28
2023/01/28 02:17:01;;;;;;;12.75;7.03;;;;;;;4.23;100.00;99426.16;5091177;28;20089;-31
2023/01/28 02:19:35;;;;;;;10.23;6.97;;;;;;;4.14;100.00;99411.47;5090754;28;20028;-28
2023/01/28 02:22:28;;;;;;;9.05;5.18;;;;;;;4.38;100.00;99429.50;5091196;28;20575;-28
2023/01/28 02:25:40;;;;;;;8.98;5.13;;;;;;;4.34;100.00;99425.63;5073233;28;20564;-28
2023/01/28 02:28:33;;;;;;;7.35;4.32;;;;;;;4.34;100.00;99430.88;5084669;28;20055;-28
2023/01/28 02:31:10;;;;;;;7.15;3.83;;;;;;;4.11;100.00;99414.50;5091719;28;20038;-28
2023/01/28 02:33:48;;;;;;;7.90;4.22;;;;;;;4.24;100.00;99433.06;5072993;28;20107;-27
2023/01/28 02:36:36;;;;;;;;;;;;;;;4.30;100.00;99442.84;5091490;28;20028;-28
2023/01/28 02:39:09;;;;;;;8.95;4.28;;;;;;;4.19;100.00;99424.91;5067451;28;20335;-27
2023/01/28 02:41:48;;;;;;;8.75;4.65;;;;;;;4.25;100.00;99440.00;5072800;28;20051;-29
2023/01/28 02:44:13;;;;;;;7.13;3.70;;;;;;;4.27;100.00;99445.88;5091645;28;20034;-31
2023/01/28 02:49:34;;;;;;;7.68;3.95;;;;;;;4.16;100.00;99454.31;5089834;28;20096;-29
2023/01/28 02:52:00;;;;;;;8.70;4.47;;;;;;;4.31;100.00;99447.13;5090447;28;20472;-29
2023/01/28 02:54:37;;;;;;;7.95;4.22;;;;;;;4.36;100.00;99455.28;5090290;28;20035;-29
2023/01/28 02:57:25;;;;;;;7.57;3.85;;;;;;;4.19;100.00;99459.22;5090003;28;20028;-32
2023/01/28 03:00:07;;;;;;;8.38;4.32;;;;;;;4.28;100.00;99451.97;5090096;28;20102;-31
2023/01/28 03:02:43;;;;;;;7.70;4.40;;;;;;;4.20;100.00;99461.66;5090616;28;20060;-29
2023/01/28 03:05:21;;;;;;;8.00;4.07;;;;;;;4.19;100.00;99444.19;5090057;28;20156;-32
2023/01/28 03:07:48;;;;;;;8.63;4.35;;;;;;;4.12;100.00;99437.25;5071882;28;20023;-28
2023/01/28 03:10:18;;;;;;;8.13;4.70;;;;;;;4.12;100.00;99439.88;5090460;28;20043;-31
2023/01/28 03:38:55;;;;;;;6.70;3.72;;;;;;;4.25;99.69;99453.19;5090174;28;20097;-28
2023/01/28 03:41:23;;;;;;;7.63;4.13;;;;;;;4.23;99.69;99450.72;5090142;28;20063;-30
2023/01/28 03:43:49;;;;;;;7.25;3.70;;;;;;;4.30;99.81;99466.59;5090452;28;20109;-27
2023/01/28 03:46:15;;;;;;;7.22;4.25;;;;;;;4.12;100.00;99458.34;5071913;28;20393;-29
2023/01/28 03:48:40;;;;;;;7.78;3.97;;;;;;;4.18;99.38;99460.22;5089702;28;20031;-29
2023/01/28 03:51:06;;;;;;;6.63;3.50;;;;;;;4.17;100.00;99485.81;5089194;28;20020;-29
2023/01/28 03:53:31;;;;;;;7.55;3.80;;;;;;;4.16;100.00;99475.44;5088844;28;20036;-29
2023/01/28 03:55:57;;;;;;;6.75;3.72;;;;;;;4.03;100.00;99461.13;5089445;28;20024;-29
2023/01/28 03:58:45;;;;;;;6.32;3.70;;;;;;;4.21;100.00;99480.97;5089435;28;20036;-29
2023/01/28 04:01:11;;;;;;;5.35;3.15;;;;;;;4.11;100.00;99478.66;5088361;28;20569;-30
2023/01/28 04:03:37;;;;;;;7.00;3.88;;;;;;;4.00;100.00;99466.81;5088622;28;20105;-29
2023/01/28 04:06:04;;;;;;;7.43;4.47;;;;;;;4.20;100.00;99489.88;5088999;28;20020;-33
2023/01/28 04:08:29;;;;;;;6.75;3.70;;;;;;;4.19;99.88;99486.44;5089282;28;20839;-29
2023/01/28 04:10:55;;;;;;;19.70;10.75;;;;;;;4.11;100.00;99480.47;5089039;28;20020;-30
2023/01/28 04:13:21;;;;;;;10.88;6.15;;;;;;;4.14;100.00;99477.44;5089011;28;20039;-29
2023/01/28 04:15:47;;;;;;;8.00;4.60;;;;;;;4.12;99.94;99490.03;5088601;28;20417;-29
2023/01/28 04:18:12;;;;;;;8.27;4.65;;;;;;;4.18;98.88;99483.97;5089213;28;20073;-27
2023/01/28 04:20:39;;;;;;;17.83;7.65;;;;;;;4.19;99.39;99486.44;5089905;28;20102;-27
2023/01/28 04:23:06;;;;;;;13.05;6.75;;;;;;;4.00;99.25;99472.09;5089482;28;20031;-27
2023/01/28 04:25:33;;;;;;;11.77;6.97;;;;;;;4.19;98.64;99501.47;5071140;28;20581;-29
2023/01/28 04:27:58;;;;;;;16.95;10.60;;;;;;;4.12;97.97;99497.94;5071007;28;20487;-27
2023/01/28 04:30:24;;;;;;;20.45;12.10;;;;;;;3.97;99.67;99508.56;5089276;28;20136;-28
2023/01/28 04:32:50;;;;;;;18.73;11.05;;;;;;;3.93;99.38;99512.59;5089057;28;20020;-30
2023/01/28 04:35:17;;;;;;;16.45;10.00;;;;;;;3.95;99.73;99502.66;5070934;28;20031;-29
2023/01/28 04:37:43;;;;;;;11.98;6.38;;;;;;;4.10;97.34;99502.59;5089008;28;20073;-26
2023/01/28 04:40:09;;;;;;;10.45;6.20;;;;;;;4.09;98.06;99490.41;5089109;28;20511;-27
2023/01/28 04:42:35;;;;;;;9.00;5.28;;;;;;;4.09;98.07;99508.88;5070941;28;20123;-29
2023/01/28 04:45:00;;;;;;;10.32;4.82;;;;;;;4.15;98.55;99518.69;5089547;28;20463;-27
2023/01/28 04:47:26;;;;;;;8.40;4.82;;;;;;;4.13;98.98;99523.34;5088101;28;20529;-29
2023/01/28 04:49:51;;;;;;;9.18;4.82;;;;;;;3.91;99.53;99499.59;5088459;28;20031;-31
2023/01/28 04:52:17;;;;;;;10.65;5.97;;;;;;;4.13;99.76;99533.88;5088771;28;20032;-28
2023/01/28 04:54:42;;;;;;;11.57;6.60;;;;;;;4.23;97.81;99529.91;5088497;28;20034;-31
2023/01/28 04:57:08;;;;;;;12.43;5.70;;;;;;;4.09;97.63;99507.06;5088488;28;20032;-29
2023/01/28 04:59:33;;;;;;;9.77;5.72;;;;;;;4.21;98.19;99536.41;5087868;28;20036;-34
2023/01/28 05:01:59;;;;;;;10.27;6.13;;;;;;;4.26;98.40;99539.25;5088103;28;20047;-29
2023/01/28 05:04:24;;;;;;;13.95;6.90;;;;;;;4.16;98.57;99520.28;5088382;28;20030;-29
2023/01/28 05:06:49;;;;;;;12.63;7.38;;;;;;;4.23;99.08;99553.66;5088418;28;20046;-29
2023/01/28 05:09:15;;;;;;;14.45;8.30;;;;;;;4.13;99.38;99541.81;5087929;28;20024;-29
2023/01/28 05:11:41;;;;;;;10.77;6.22;;;;;;;3.98;98.58;99523.38;5070195;28;20028;-31
2023/01/28 05:14:06;;;;;;;9.73;5.80;;;;;;;4.08;98.17;99533.63;5092543;28;20154;-28
2023/01/28 05:16:33;;;;;;;13.07;6.63;;;;;;;3.98;98.19;99532.13;5092187;28;20027;-29
2023/01/28 05:18:59;;;;;;;10.88;5.50;;;;;;;4.08;95.96;99531.78;5092273;28;20031;-28
2023/01/28 05:21:25;;;;;;;59.03;42.30;;;;;;;4.00;96.31;99545.97;5074309;28;20028;-28
2023/01/28 05:23:51;;;;;;;53.90;34.75;;;;;;;4.06;95.76;99554.09;5092710;28;20024;-31
2023/01/28 05:26:16;;;;;;;46.08;30.88;;;;;;;4.18;97.02;99557.88;5092734;28;20031;-31
2023/01/28 05:28:42;;;;;;;148.95;83.40;;;;;;;4.26;97.08;99544.53;5092584;28;20020;-28
2023/01/28 05:31:09;;;;;;;142.77;75.65;;;;;;;4.20;96.24;99569.06;5092522;28;20414;-28
2023/01/28 05:33:34;;;;;;;389.73;202.00;;;;;;;4.30;94.68;99561.63;5092710;28;20051;-28
2023/01/28 05:36:00;;;;;;;295.67;154.15;;;;;;;4.07;96.92;99539.94;5074166;28;20649;-28
2023/01/28 05:38:25;;;;;;;209.70;114.22;;;;;;;4.09;96.94;99572.22;5092404;28;20039;-26
2023/01/28 05:40:50;;;;;;;130.55;93.10;;;;;;;4.12;95.93;99554.16;5092542;28;20031;-27
2023/01/28 05:43:16;;;;;;;107.30;96.05;;;;;;;4.19;96.49;99570.88;5092226;28;20021;-28
2023/01/28 05:45:41;;;;;;;40.65;34.85;;;;;;;4.02;98.79;99586.16;5092215;28;20106;-28
2023/01/28 05:48:07;;;;;;;47.25;35.42;;;;;;;3.97;98.83;99571.88;5073773;28;20081;-30
2023/01/28 05:50:32;;;;;;;38.25;24.50;;;;;;;4.02;99.31;99580.88;5091578;28;20086;-31
2023/01/28 05:52:58;;;;;;;33.83;24.25;;;;;;;3.97;98.37;99564.78;5091576;28;20024;-31
2023/01/28 05:55:23;;;;;;;28.52;21.25;;;;;;;4.10;97.82;99571.19;5073051;28;20078;-31
2023/01/28 05:57:49;;;;;;;27.80;17.75;;;;;;;4.15;97.23;99579.38;5091326;28;20410;-28
2023/01/28 06:00:15;;;;;;;43.58;20.48;;;;;;;4.18;98.01;99584.25;5091179;28;20031;-30
2023/01/28 06:02:41;;;;;;;33.67;22.30;;;;;;;4.38;96.29;99593.19;5091521;28;20555;-30
2023/01/28 06:05:07;;;;;;;19.33;14.68;;;;;;;4.26;95.39;99601.81;5091561;28;20115;-28
2023/01/28 06:07:33;;;;;;;14.25;9.57;;;;;;;4.39;95.54;99601.91;5091210;28;20032;-29
2023/01/28 06:09:58;;;;;;;16.27;10.07;;;;;;;4.38;95.06;99610.84;5091610;28;20035;-29
2023/01/28 06:12:24;;;;;;;11.90;7.05;;;;;;;4.27;94.54;99604.25;5072982;28;20114;-31
2023/01/28 06:14:49;;;;;;;14.57;10.18;;;;;;;4.38;94.54;99611.66;5072905;28;20034;-28
2023/01/28 06:17:14;;;;;;;11.07;7.78;;;;;;;4.12;95.54;99595.56;5091468;28;20028;-30
2023/01/28 06:19:40;;;;;;;10.60;7.57;;;;;;;4.23;96.73;99610.91;5091209;28;20121;-28
2023/01/28 06:22:06;;;;;;;9.50;5.95;;;;;;;4.53;93.36;99629.25;5091915;28;20036;-29
2023/01/28 06:24:31;;;;;;;11.05;7.68;;;;;;;4.49;94.77;99626.16;5090625;28;20144;-30
2023/01/28 06:26:57;;;;;;;10.32;8.05;;;;;;;4.25;95.45;99610.72;5091550;28;20020;-28
2023/01/28 06:29:22;;;;;;;10.18;7.00;;;;;;;4.45;95.70;99642.59;5091171;28;20089;-28
2023/01/28 06:31:48;;;;;;;11.85;7.28;;;;;;;4.42;96.40;99623.47;5091528;28;20032;-28
2023/01/28 06:34:14;;;;;;;17.80;13.05;;;;;;;4.55;95.48;99632.50;5072728;28;20039;-28
2023/01/28 06:36:39;;;;;;;18.35;13.07;;;;;;;4.75;93.45;99644.06;5090373;28;20044;-30
2023/01/28 06:39:05;;;;;;;16.52;11.48;;;;;;;4.60;94.06;99619.56;5064007;28;20028;-31
2023/01/28 06:41:31;;;;;;;21.17;14.52;;;;;;;4.50;94.99;99630.44;5090070;28;20055;-32
2023/01/28 06:43:56;;;;;;;17.55;11.85;;;;;;;4.37;93.95;99615.31;5071762;28;20458;-27
2023/01/28 06:46:23;;;;;;;11.35;8.55;;;;;;;4.61;95.14;99643.13;5090670;28;20064;-28
2023/01/28 06:48:49;;;;;;;9.65;6.43;;;;;;;4.70;93.07;99657.03;5071734;28;20380;-29
2023/01/28 06:51:14;;;;;;;27.67;23.60;;;;;;;4.68;92.62;99659.06;5072031;28;20035;-29
2023/01/28 06:53:40;;;;;;;55.90;45.15;;;;;;;4.83;92.08;99657.13;5072195;28;20117;-29
2023/01/28 06:56:07;;;;;;;34.00;27.88;;;;;;;4.71;92.51;99642.00;5090376;28;20478;-28
2023/01/28 06:58:33;;;;;;;54.67;41.72;;;;;;;4.77;94.10;99663.19;5072434;28;20032;-29
2023/01/28 07:00:58;;;;;;;22.83;16.20;;;;;;;4.90;94.04;99666.94;5090469;28;20036;-29
2023/01/28 07:03:24;;;;;;;35.67;24.35;;;;;;;4.75;93.28;99654.63;5072238;28;20399;-30
2023/01/28 07:05:49;;;;;;;17.35;10.77;;;;;;;4.73;94.42;99642.63;5071883;28;20031;-30
2023/01/28 07:08:15;;;;;;;25.52;22.17;;;;;;;4.68;93.94;99648.50;5071980;28;20027;-30
2023/01/28 07:10:40;;;;;;;56.22;50.30;;;;;;;4.82;92.14;99676.66;5090076;28;20472;-30
2023/01/28 07:13:06;;;;;;;19.92;14.38;;;;;;;4.79;92.79;99663.81;5090169;28;20035;-29
2023/01/28 07:15:31;;;;;;;13.98;9.27;;;;;;;4.92;92.72;99683.41;5090291;28;20028;-30
2023/01/28 07:17:57;;;;;;;16.58;9.10;;;;;;;4.78;95.03;99662.19;5089901;28;20028;-29
2023/01/28 07:20:22;;;;;;;12.60;8.57;;;;;;;5.12;93.16;99694.94;5055127;28;20024;-29
2023/01/28 07:22:48;;;;;;;36.53;30.13;;;;;;;5.13;92.64;99672.81;5090148;28;20032;-28
2023/01/28 07:25:14;;;;;;;105.95;87.82;;;;;;;5.15;92.54;99697.22;5090389;28;20541;-34
2023/01/28 07:27:48;;;;;;;40.40;35.80;;;;;;;5.16;91.00;99687.47;5090188;28;20519;-27
2023/01/28 07:30:13;;;;;;;14.73;8.15;;;;;;;5.33;91.84;99703.84;5071183;28;20064;-27
2023/01/28 07:32:39;;;;;;;9.13;4.90;;;;;;;5.30;88.24;99693.66;5089243;28;20050;-28
2023/01/28 07:35:05;;;;;;;9.73;5.13;;;;;;;5.30;89.97;99704.25;5089313;28;20107;-29
2023/01/28 07:37:31;;;;;;;8.52;4.75;;;;;;;5.17;89.61;99697.84;5065074;28;20051;-28
2023/01/28 07:39:56;;;;;;;9.75;5.03;;;;;;;5.15;89.54;99699.88;5089313;28;20032;-30
2023/01/28 07:42:21;;;;;;;12.88;7.97;;;;;;;5.29;90.41;99692.84;5089704;28;20028;-30
2023/01/28 07:44:47;;;;;;;8.95;4.57;;;;;;;5.42;89.78;99718.56;5071509;28;20024;-27
2023/01/28 07:47:12;;;;;;;8.57;4.97;;;;;;;5.24;90.27;99696.06;5090139;28;20035;-31
2023/01/28 07:49:41;;;;;;;32.40;11.77;;;;;;;5.66;95.62;99727.88;5089315;28;20084;-29
2023/01/28 07:52:07;;;;;;;;;;;;;;;6.25;93.03;99731.78;5089814;28;20024;-29
2023/01/28 07:54:33;;;;;;;11.32;5.40;;;;;;;6.51;87.82;99738.19;5089165;28;19919;-29
2023/01/28 07:56:59;;;;;;;8.57;4.72;;;;;;;6.35;87.17;99734.88;5089143;28;20032;-31
2023/01/28 07:59:24;;;;;;;12.80;6.35;;;;;;;6.07;87.13;99737.66;5088909;28;20035;-29
2023/01/28 08:01:49;;;;;;;9.55;5.60;;;;;;;6.32;94.78;99735.28;5089103;28;20103;-29
2023/01/28 08:04:15;;;;;;;11.95;5.70;;;;;;;6.73;86.11;99742.31;5088771;28;20039;-28
2023/01/28 08:06:40;;;;;;;8.88;5.10;;;;;;;6.54;88.19;99748.38;5089468;28;20035;-28
2023/01/28 08:09:07;;;;;;;8.50;4.80;;;;;;;6.56;86.23;99746.34;5089567;28;20028;-27
2023/01/28 08:11:36;;;;;;;10.88;5.30;;;;;;;6.50;84.99;99755.09;5089671;28;20407;-29
2023/01/28 08:14:01;;;;;;;8.73;5.10;;;;;;;6.36;84.87;99746.31;5090126;28;20032;-27
2023/01/28 08:16:28;;;;;;;11.30;7.30;;;;;;;6.04;84.69;99728.25;5071433;28;20047;-31
2023/01/28 08:18:53;;;;;;;10.38;5.32;;;;;;;6.17;86.56;99747.84;5089735;28;20059;-28
2023/01/28 08:21:19;;;;;;;10.18;5.30;;;;;;;6.27;88.16;99756.25;5089320;28;20024;-29
2023/01/28 08:23:44;;;;;;;20.65;8.85;;;;;;;5.99;84.82;99751.88;5085664;28;20024;-29
2023/01/28 08:26:10;;;;;;;15.80;7.80;;;;;;;6.07;86.12;99763.28;5062409;28;20028;-29
2023/01/28 08:28:35;;;;;;;17.70;8.38;;;;;;;6.14;86.92;99753.56;5068264;28;20035;-31
2023/01/28 08:31:01;;;;;;;31.95;14.38;;;;;;;6.06;87.04;99751.91;5076955;28;20550;-29
2023/01/28 08:33:27;;;;;;;37.85;17.55;;;;;;;5.87;85.35;99748.13;5067112;28;20043;-27
2023/01/28 08:35:52;;;;;;;47.00;18.55;;;;;;;6.06;87.64;99766.97;5068582;28;20404;-29
2023/01/28 08:38:19;;;;;;;26.58;13.00;;;;;;;6.15;87.04;99760.47;5068877;28;20053;-30
2023/01/28 08:40:45;;;;;;;16.05;8.95;;;;;;;6.13;88.40;99747.47;5066493;28;20032;-27
2023/01/28 08:43:11;;;;;;;14.40;9.77;;;;;;;6.54;87.14;99770.41;5088535;28;20122;-29
2023/01/28 08:45:38;;;;;;;18.45;8.70;;;;;;;6.33;85.94;99752.81;5083840;28;20543;-32
2023/01/28 08:48:06;;;;;;;12.17;5.73;;;;;;;6.05;84.10;99752.94;5076777;28;20044;-30
2023/01/28 08:50:34;;;;;;;9.45;6.05;;;;;;;5.98;84.02;99760.81;5050246;28;20033;-31
2023/01/28 08:53:06;;;;;;;14.65;8.13;;;;;;;6.03;85.89;99753.13;5075481;28;20036;-29
2023/01/28 08:55:33;;;;;;;9.00;5.45;;;;;;;6.32;86.36;99756.47;5088741;28;20025;-29
2023/01/28 08:58:02;;;;;;;8.50;4.53;;;;;;;6.32;83.15;99751.19;5087049;28;20064;-29
2023/01/28 09:00:28;;;;;;;7.28;4.07;;;;;;;6.12;84.16;99750.28;5088247;28;20028;-29
2023/01/28 09:02:53;;;;;;;9.23;5.07;;;;;;;6.11;87.03;99775.13;5070192;28;20032;-29
2023/01/28 09:05:19;;;;;;;12.80;6.35;;;;;;;6.12;87.13;99761.69;5088048;28;20032;-29
2023/01/28 09:07:45;;;;;;;8.07;4.63;;;;;;;6.03;85.83;99753.13;5088420;28;20024;-29
2023/01/28 09:10:11;;;;;;;27.42;8.90;;;;;;;6.07;86.52;99758.84;5088483;28;20058;-29
2023/01/28 09:12:36;;;;;;;19.27;9.02;;;;;;;5.97;87.39;99761.03;5088509;28;20039;-34
2023/01/28 09:15:03;;;;;;;11.82;7.32;;;;;;;5.88;86.80;99760.31;5089103;28;20082;-30
2023/01/28 09:17:28;;;;;;;23.60;10.50;;;;;;;5.96;88.03;99769.97;5087958;28;20480;-27
2023/01/28 09:19:54;;;;;;;13.48;6.88;;;;;;;5.83;88.25;99752.16;5070312;28;20043;-30
2023/01/28 09:22:20;;;;;;;11.80;6.93;;;;;;;6.04;89.87;99785.69;5080294;28;20032;-29
2023/01/28 09:24:45;;;;;;;13.95;8.23;;;;;;;6.24;89.04;99780.50;5068404;28;20032;-29
2023/01/28 09:27:11;;;;;;;9.13;5.40;;;;;;;5.98;86.76;99760.81;5049875;28;20086;-29
2023/01/28 09:29:37;;;;;;;11.65;5.55;;;;;;;6.02;88.52;99772.63;5067548;28;20032;-29
2023/01/28 09:32:03;;;;;;;8.23;4.88;;;;;;;6.13;87.91;99783.69;5067916;28;20032;-29
2023/01/28 09:34:29;;;;;;;8.25;5.60;;;;;;;6.17;87.92;99775.19;5067766;28;20028;-28
2023/01/28 09:36:54;;;;;;;8.27;5.60;;;;;;;6.36;87.94;99772.81;5067509;28;20494;-27
2023/01/28 09:39:20;;;;;;;24.10;13.38;;;;;;;6.26;86.31;99777.66;5068339;28;20101;-27
2023/01/28 09:42:23;;;;;;;21.40;11.85;;;;;;;6.33;87.56;99783.78;5068574;28;20579;-33
2023/01/28 09:45:07;;;;;;;15.10;8.43;;;;;;;6.26;89.67;99741.38;5068524;28;20447;-30
2023/01/28 09:47:43;;;;;;;8.80;5.40;;;;;;;6.36;86.31;99784.22;5067952;28;20571;-28
2023/01/28 09:50:16;;;;;;;8.18;4.78;;;;;;;6.47;87.60;99782.00;5050481;28;20029;-28
2023/01/28 09:52:43;;;;;;;8.95;5.22;;;;;;;6.46;85.60;99775.06;5068471;28;20032;-30
2023/01/28 09:55:22;;;;;;;9.88;5.43;;;;;;;6.46;86.92;99767.09;5067140;28;20126;-27
2023/01/28 09:57:54;;;;;;;8.50;4.70;;;;;;;6.48;87.47;99780.97;5049966;28;20028;-28
2023/01/28 10:00:29;;;;;;;12.75;7.32;;;;;;;6.48;85.11;99780.97;5071172;28;20036;-27
2023/01/28 10:03:08;;;;;;;19.48;9.82;;;;;;;6.36;88.15;99752.41;5071987;28;20488;-29
2023/01/28 10:05:55;;;;;;;16.38;8.85;;;;;;;6.83;85.36;99779.84;5071824;28;20064;-33
2023/01/28 10:08:41;;;;;;;16.48;10.85;;;;;;;6.93;90.05;99783.97;5071673;28;20024;-28
2023/01/28 10:11:47;;;;;;;15.70;7.68;;;;;;;6.82;86.48;99778.22;5071892;28;20510;-27
2023/01/28 10:14:33;;;;;;;10.52;5.82;;;;;;;7.02;86.11;99782.72;5042694;28;20075;-28
2023/01/28 10:17:06;;;;;;;14.02;7.38;;;;;;;7.13;85.64;99768.03;5053919;28;20028;-28
2023/01/28 10:19:46;;;;;;;12.00;7.38;;;;;;;7.02;86.05;99769.47;5073845;28;20020;-29
2023/01/28 10:22:18;;;;;;;13.25;7.07;;;;;;;6.92;85.58;99769.88;5079801;28;20032;-30
2023/01/28 10:24:52;;;;;;;14.63;7.60;;;;;;;6.93;84.52;99773.34;5073000;28;20024;-34
2023/01/28 10:27:23;;;;;;;17.33;10.35;;;;;;;7.14;87.36;99775.81;5079354;28;20031;-29
2023/01/28 10:29:50;;;;;;;12.77;9.02;;;;;;;7.06;85.95;99776.00;5052610;28;20093;-28
2023/01/28 10:32:28;;;;;;;10.15;5.93;;;;;;;6.82;83.81;99746.44;5054667;28;20029;-32
2023/01/28 10:34:55;;;;;;;11.05;6.57;;;;;;;7.11;83.18;99776.22;5088905;28;20089;-29
2023/01/28 10:37:20;;;;;;;13.45;7.10;;;;;;;7.35;84.18;99777.44;5089745;28;20052;-29
2023/01/28 10:39:46;;;;;;;12.15;6.93;;;;;;;7.27;82.90;99779.47;5090015;28;20047;-29
2023/01/28 10:42:16;;;;;;;10.13;5.78;;;;;;;7.32;84.09;99783.16;5090170;28;20024;-30
2023/01/28 10:44:44;;;;;;;16.10;10.48;;;;;;;7.36;86.64;99778.28;5089960;28;20130;-31
2023/01/28 10:47:18;;;;;;;13.40;8.60;;;;;;;7.58;83.66;99771.72;5063480;28;20024;-31
2023/01/28 10:49:49;;;;;;;10.85;5.82;;;;;;;7.89;83.69;99772.88;5068689;28;20024;-31
2023/01/28 10:52:15;;;;;;;6.35;3.83;;;;;;;8.19;80.83;99772.34;5089871;28;20028;-29
2023/01/28 10:54:40;;;;;;;9.02;6.00;;;;;;;8.18;80.31;99766.25;5089853;28;20024;-29
2023/01/28 10:57:14;;;;;;;12.90;11.60;;;;;;;8.06;77.89;99773.22;5089824;28;20376;-30
2023/01/28 10:59:40;;;;;;;14.75;12.77;;;;;;;8.06;77.74;99765.25;5071391;28;20422;-30
2023/01/28 11:02:25;;;;;;;12.45;11.15;;;;;;;8.01;79.65;99773.06;5071521;28;20106;-30
2023/01/28 11:05:16;;;;;;;12.75;9.52;;;;;;;7.75;79.41;99756.16;5088315;28;20111;-30
2023/01/28 11:07:42;;;;;;;14.05;11.10;;;;;;;7.90;79.24;99784.31;5089942;28;20499;-28
2023/01/28 11:10:26;;;;;;;11.82;8.73;;;;;;;8.05;79.41;99777.72;5089586;28;20035;-29
2023/01/28 11:12:56;;;;;;;8.32;5.20;;;;;;;8.04;72.85;99777.94;5071819;28;20027;-29
2023/01/28 11:15:21;;;;;;;7.35;5.18;;;;;;;7.77;74.88;99754.09;5071526;28;20028;-32
2023/01/28 11:17:54;;;;;;;7.82;4.43;;;;;;;7.74;74.57;99770.44;5068740;28;20023;-29
2023/01/28 11:20:23;;;;;;;7.50;4.38;;;;;;;7.75;76.07;99773.94;5082053;28;20491;-31
2023/01/28 11:22:49;;;;;;;8.07;4.00;;;;;;;7.56;74.83;99776.41;5089796;28;20028;-29
2023/01/28 11:25:17;;;;;;;19.65;10.55;;;;;;;7.55;76.34;99777.41;5071027;28;20042;-29
2023/01/28 11:27:47;;;;;;;24.45;14.68;;;;;;;7.58;77.70;99771.72;5089634;28;20024;-29
2023/01/28 11:30:39;;;;;;;11.27;5.72;;;;;;;7.71;76.86;99770.06;5089396;28;20489;-29
2023/01/28 11:33:11;;;;;;;29.80;11.55;;;;;;;7.84;77.15;99764.72;5068710;28;20047;-29
2023/01/28 11:35:36;;;;;;;39.13;16.40;;;;;;;7.76;75.54;99759.63;5088895;28;20035;-29
2023/01/28 11:38:02;;;;;;;19.08;9.07;;;;;;;7.77;77.30;99748.81;5089882;28;20126;-30
2023/01/28 11:40:27;;;;;;;14.43;8.90;;;;;;;8.02;74.50;99767.50;5070999;28;20072;-29
2023/01/28 11:42:58;;;;;;;15.32;8.57;;;;;;;7.76;75.90;99762.28;5089522;28;20028;-29
2023/01/28 11:45:42;;;;;;;13.85;7.20;;;;;;;7.73;75.71;99774.13;5070819;28;20485;-29
2023/01/28 11:48:31;;;;;;;10.23;6.28;;;;;;;7.48;73.32;99776.63;5089104;28;20442;-30
2023/01/28 11:51:02;;;;;;;8.50;4.57;;;;;;;7.51;74.42;99772.75;5071005;28;20024;-31
2023/01/28 11:54:10;;;;;;;7.57;5.03;;;;;;;7.65;72.78;99775.16;5070967;28;20122;-30
2023/01/28 11:57:04;;;;;;;12.45;7.97;;;;;;;7.57;73.78;99774.56;5088329;28;20507;-29
2023/01/28 11:59:32;;;;;;;7.05;4.57;;;;;;;7.64;71.27;99780.66;5058910;28;20044;-29
2023/01/28 12:02:09;;;;;;;6.22;3.83;;;;;;;7.47;74.00;99774.97;5089334;28;20024;-31
2023/01/28 12:04:54;;;;;;;9.90;6.35;;;;;;;7.50;72.76;99782.53;5070854;28;20050;-28
2023/01/28 12:07:42;;;;;;;7.22;5.25;;;;;;;7.38;73.85;99776.22;5089190;28;20377;-29
2023/01/28 12:10:15;;;;;;;7.88;5.03;;;;;;;7.37;74.40;99785.19;5078503;28;20036;-32